sensor_id;sensor_type;location;lat;lon;timestamp;pressure;altitude;pressure_sealevel;temperature;humidity
6859;BME280;3468;42.824;23.240;2024-01-16T00:00:31;67888.59;;;3.95;100.00
6859;BME280;3468;42.824;23.240;2024-01-16T00:02:58;67858.09;;;3.99;100.00
6859;BME280;3468;42.824;23.240;2024-01-16T00:05:25;67701.75;;;3.46;100.00
6859;BME280;3468;42.824;23.240;2024-01-16T00:07:53;67927.66;;;3.98;100.00
6859;BME280;3468;42.824;23.240;2024-01-16T00:10:20;67860.97;;;4.01;100.00
6859;BME280;3468;42.824;23.240;2024-01-16T00:12:47;67853.09;;;3.81;100.00
6859;BME280;3468;42.824;23.240;2024-01-16T00:15:15;67833.50;;;3.77;100.00
6859;BME280;3468;42.824;23.240;2024-01-16T00:17:42;67837.63;;;3.85;100.00
6859;BME280;3468;42.824;23.240;2024-01-16T00:20:09;67842.47;;;3.64;100.00
6859;BME280;3468;42.824;23.240;2024-01-16T00:22:36;67880.84;;;3.97;100.00
6859;BME280;3468;42.824;23.240;2024-01-16T00:25:06;67818.75;;;3.69;100.00
6859;BME280;3468;42.824;23.240;2024-01-16T00:27:31;67888.59;;;4.12;100.00
6859;BME280;3468;42.824;23.240;2024-01-16T00:29:58;67876.63;;;4.12;100.00
6859;BME280;3468;42.824;23.240;2024-01-16T00:32:25;67898.78;;;4.16;100.00
6859;BME280;3468;42.824;23.240;2024-01-16T00:34:52;67874.28;;;4.17;100.00
6859;BME280;3468;42.824;23.240;2024-01-16T00:37:18;67852.91;;;3.60;100.00
6859;BME280;3468;42.824;23.240;2024-01-16T00:39:46;67866.25;;;4.10;100.00
6859;BME280;3468;42.824;23.240;2024-01-16T00:42:14;67874.00;;;4.25;100.00
6859;BME280;3468;42.824;23.240;2024-01-16T00:44:41;67917.44;;;4.35;100.00
6859;BME280;3468;42.824;23.240;2024-01-16T00:47:07;67926.28;;;4.40;100.00
6859;BME280;3468;42.824;23.240;2024-01-16T00:49:35;67897.25;;;4.48;100.00
6859;BME280;3468;42.824;23.240;2024-01-16T00:52:02;67935.59;;;4.52;100.00
6859;BME280;3468;42.824;23.240;2024-01-16T00:54:28;67891.47;;;4.32;100.00
6859;BME280;3468;42.824;23.240;2024-01-16T00:56:55;67947.59;;;4.80;100.00
6859;BME280;3468;42.824;23.240;2024-01-16T00:59:26;67949.97;;;4.93;100.00
6859;BME280;3468;42.824;23.240;2024-01-16T01:01:53;67927.44;;;5.04;100.00
6859;BME280;3468;42.824;23.240;2024-01-16T01:04:19;67935.81;;;5.13;100.00
6859;BME280;3468;42.824;23.240;2024-01-16T01:06:46;67958.19;;;5.15;100.00
6859;BME280;3468;42.824;23.240;2024-01-16T01:09:13;67963.13;;;5.22;100.00
6859;BME280;3468;42.824;23.240;2024-01-16T01:11:40;67924.81;;;4.82;100.00
6859;BME280;3468;42.824;23.240;2024-01-16T01:14:06;67962.34;;;5.23;100.00
6859;BME280;3468;42.824;23.240;2024-01-16T01:16:35;67922.31;;;5.28;100.00
6859;BME280;3468;42.824;23.240;2024-01-16T01:19:01;68001.50;;;5.27;100.00
6859;BME280;3468;42.824;23.240;2024-01-16T01:21:29;67921.22;;;5.09;100.00
6859;BME280;3468;42.824;23.240;2024-01-16T01:23:56;67963.19;;;5.32;100.00
6859;BME280;3468;42.824;23.240;2024-01-16T01:26:23;67977.69;;;5.32;100.00
6859;BME280;3468;42.824;23.240;2024-01-16T01:28:49;67979.97;;;5.34;100.00
6859;BME280;3468;42.824;23.240;2024-01-16T01:31:16;67986.72;;;5.35;100.00
6859;BME280;3468;42.824;23.240;2024-01-16T01:33:44;67980.97;;;5.31;100.00
6859;BME280;3468;42.824;23.240;2024-01-16T01:36:11;67989.44;;;5.33;100.00
6859;BME280;3468;42.824;23.240;2024-01-16T01:38:38;67962.22;;;5.01;100.00
6859;BME280;3468;42.824;23.240;2024-01-16T01:41:05;67947.09;;;5.36;100.00
6859;BME280;3468;42.824;23.240;2024-01-16T01:43:31;68039.22;;;5.37;100.00
6859;BME280;3468;42.824;23.240;2024-01-16T01:46:08;67948.59;;;5.39;100.00
6859;BME280;3468;42.824;23.240;2024-01-16T01:48:37;67916.69;;;5.16;100.00
6859;BME280;3468;42.824;23.240;2024-01-16T01:51:06;68013.47;;;5.43;100.00
6859;BME280;3468;42.824;23.240;2024-01-16T01:53:33;68011.09;;;5.48;100.00
6859;BME280;3468;42.824;23.240;2024-01-16T01:56:03;68028.25;;;5.52;100.00
6859;BME280;3468;42.824;23.240;2024-01-16T01:58:31;67960.44;;;5.52;100.00
6859;BME280;3468;42.824;23.240;2024-01-16T02:00:57;68021.28;;;5.52;100.00
6859;BME280;3468;42.824;23.240;2024-01-16T02:03:27;68007.47;;;5.58;100.00
6859;BME280;3468;42.824;23.240;2024-01-16T02:05:55;68038.91;;;5.63;100.00
6859;BME280;3468;42.824;23.240;2024-01-16T02:08:23;68035.47;;;5.60;100.00
6859;BME280;3468;42.824;23.240;2024-01-16T02:10:50;68006.63;;;5.66;100.00
6859;BME280;3468;42.824;23.240;2024-01-16T02:13:18;68062.47;;;5.49;100.00
6859;BME280;3468;42.824;23.240;2024-01-16T02:15:49;68202.81;;;5.57;100.00
6859;BME280;3468;42.824;23.240;2024-01-16T02:18:15;68011.72;;;5.59;100.00
6859;BME280;3468;42.824;23.240;2024-01-16T02:20:42;68023.63;;;5.65;100.00
6859;BME280;3468;42.824;23.240;2024-01-16T02:23:10;67998.28;;;5.67;100.00
6859;BME280;3468;42.824;23.240;2024-01-16T02:25:40;68005.03;;;5.69;100.00
6859;BME280;3468;42.824;23.240;2024-01-16T02:28:07;67987.16;;;5.77;100.00
6859;BME280;3468;42.824;23.240;2024-01-16T02:30:34;68045.53;;;5.77;100.00
6859;BME280;3468;42.824;23.240;2024-01-16T02:33:01;68008.19;;;5.80;100.00
6859;BME280;3468;42.824;23.240;2024-01-16T02:35:29;68028.28;;;5.80;100.00
6859;BME280;3468;42.824;23.240;2024-01-16T02:37:55;68036.75;;;5.83;100.00
6859;BME280;3468;42.824;23.240;2024-01-16T02:40:22;68021.22;;;5.87;100.00
6859;BME280;3468;42.824;23.240;2024-01-16T02:42:50;68024.69;;;5.90;100.00
6859;BME280;3468;42.824;23.240;2024-01-16T02:45:17;68059.28;;;5.89;100.00
6859;BME280;3468;42.824;23.240;2024-01-16T02:47:44;68034.25;;;5.83;100.00
6859;BME280;3468;42.824;23.240;2024-01-16T02:50:11;68004.09;;;5.83;100.00
6859;BME280;3468;42.824;23.240;2024-01-16T02:52:37;68012.78;;;5.84;100.00
6859;BME280;3468;42.824;23.240;2024-01-16T02:55:05;68042.22;;;5.79;100.00
6859;BME280;3468;42.824;23.240;2024-01-16T02:57:32;68033.00;;;5.71;100.00
6859;BME280;3468;42.824;23.240;2024-01-16T03:00:01;68026.34;;;5.63;100.00
6859;BME280;3468;42.824;23.240;2024-01-16T03:02:28;68025.13;;;5.51;100.00
6859;BME280;3468;42.824;23.240;2024-01-16T03:04:55;67990.28;;;5.43;100.00
6859;BME280;3468;42.824;23.240;2024-01-16T03:07:22;67974.69;;;5.25;100.00
6859;BME280;3468;42.824;23.240;2024-01-16T03:09:48;68072.34;;;5.10;100.00
6859;BME280;3468;42.824;23.240;2024-01-16T03:12:15;67885.88;;;4.94;100.00
6859;BME280;3468;42.824;23.240;2024-01-16T03:14:42;67935.41;;;5.00;100.00
6859;BME280;3468;42.824;23.240;2024-01-16T03:17:11;67951.09;;;4.94;100.00
6859;BME280;3468;42.824;23.240;2024-01-16T03:19:38;67971.84;;;4.88;100.00
6859;BME280;3468;42.824;23.240;2024-01-16T03:22:05;67877.66;;;4.44;100.00
6859;BME280;3468;42.824;23.240;2024-01-16T03:24:31;67914.28;;;4.75;100.00
6859;BME280;3468;42.824;23.240;2024-01-16T03:26:58;67928.97;;;4.73;100.00
6859;BME280;3468;42.824;23.240;2024-01-16T03:29:25;67913.22;;;4.68;100.00
6859;BME280;3468;42.824;23.240;2024-01-16T03:31:52;67919.81;;;4.65;100.00
6859;BME280;3468;42.824;23.240;2024-01-16T03:34:20;67932.78;;;4.61;100.00
6859;BME280;3468;42.824;23.240;2024-01-16T03:36:46;67926.13;;;4.53;100.00
6859;BME280;3468;42.824;23.240;2024-01-16T03:39:13;67913.81;;;4.51;100.00
6859;BME280;3468;42.824;23.240;2024-01-16T03:41:40;67903.63;;;4.47;100.00
6859;BME280;3468;42.824;23.240;2024-01-16T03:44:07;67902.13;;;4.43;100.00
6859;BME280;3468;42.824;23.240;2024-01-16T03:46:33;67895.41;;;4.42;100.00
6859;BME280;3468;42.824;23.240;2024-01-16T03:49:00;67891.03;;;4.36;100.00
6859;BME280;3468;42.824;23.240;2024-01-16T03:51:28;67888.03;;;4.29;100.00
6859;BME280;3468;42.824;23.240;2024-01-16T03:53:55;67872.06;;;4.26;100.00
6859;BME280;3468;42.824;23.240;2024-01-16T03:56:22;67891.81;;;4.17;100.00
6859;BME280;3468;42.824;23.240;2024-01-16T03:58:49;67880.88;;;4.14;100.00
6859;BME280;3468;42.824;23.240;2024-01-16T04:01:15;67870.91;;;4.08;100.00
6859;BME280;3468;42.824;23.240;2024-01-16T04:03:42;67909.34;;;4.00;100.00
6859;BME280;3468;42.824;23.240;2024-01-16T04:06:16;67852.44;;;3.29;100.00
6859;BME280;3468;42.824;23.240;2024-01-16T04:08:44;67848.41;;;3.49;100.00
6859;BME280;3468;42.824;23.240;2024-01-16T04:11:12;67858.66;;;3.65;100.00
6859;BME280;3468;42.824;23.240;2024-01-16T04:13:39;67807.13;;;3.37;100.00
6859;BME280;3468;42.824;23.240;2024-01-16T04:16:06;67812.44;;;3.46;100.00
6859;BME280;3468;42.824;23.240;2024-01-16T04:18:36;67809.41;;;3.39;100.00
6859;BME280;3468;42.824;23.240;2024-01-16T04:21:04;67830.44;;;3.36;100.00
6859;BME280;3468;42.824;23.240;2024-01-16T04:23:30;67818.97;;;3.26;100.00
6859;BME280;3468;42.824;23.240;2024-01-16T04:25:59;67810.69;;;3.28;100.00
6859;BME280;3468;42.824;23.240;2024-01-16T04:28:25;67794.84;;;3.18;100.00
6859;BME280;3468;42.824;23.240;2024-01-16T04:30:52;67817.25;;;3.07;100.00
6859;BME280;3468;42.824;23.240;2024-01-16T04:33:19;67791.94;;;2.98;100.00
6859;BME280;3468;42.824;23.240;2024-01-16T04:35:46;67822.94;;;2.95;100.00
6859;BME280;3468;42.824;23.240;2024-01-16T04:38:12;67778.91;;;2.91;100.00
6859;BME280;3468;42.824;23.240;2024-01-16T04:40:39;67771.84;;;2.87;100.00
6859;BME280;3468;42.824;23.240;2024-01-16T04:43:07;67766.13;;;2.83;100.00
6859;BME280;3468;42.824;23.240;2024-01-16T04:45:34;67708.66;;;2.18;100.00
6859;BME280;3468;42.824;23.240;2024-01-16T04:48:01;67784.47;;;2.75;100.00
6859;BME280;3468;42.824;23.240;2024-01-16T04:50:28;67767.97;;;2.71;100.00
6859;BME280;3468;42.824;23.240;2024-01-16T04:52:57;67717.00;;;2.51;100.00
6859;BME280;3468;42.824;23.240;2024-01-16T04:55:25;67716.03;;;2.72;100.00
6859;BME280;3468;42.824;23.240;2024-01-16T04:57:52;67797.16;;;2.73;100.00
6859;BME280;3468;42.824;23.240;2024-01-16T05:00:20;67787.22;;;2.66;100.00
6859;BME280;3468;42.824;23.240;2024-01-16T05:02:47;67733.97;;;2.68;100.00
6859;BME280;3468;42.824;23.240;2024-01-16T05:05:14;67742.44;;;2.64;100.00
6859;BME280;3468;42.824;23.240;2024-01-16T05:07:40;67751.00;;;2.54;100.00
6859;BME280;3468;42.824;23.240;2024-01-16T05:10:09;67764.56;;;2.62;100.00
6859;BME280;3468;42.824;23.240;2024-01-16T05:12:38;67716.19;;;2.35;100.00
6859;BME280;3468;42.824;23.240;2024-01-16T05:15:06;67648.28;;;1.81;100.00
6859;BME280;3468;42.824;23.240;2024-01-16T05:17:34;67741.34;;;2.57;100.00
6859;BME280;3468;42.824;23.240;2024-01-16T05:20:01;67663.69;;;2.18;100.00
6859;BME280;3468;42.824;23.240;2024-01-16T05:22:29;67765.81;;;2.50;100.00
6859;BME280;3468;42.824;23.240;2024-01-16T05:24:56;67769.88;;;2.47;100.00
6859;BME280;3468;42.824;23.240;2024-01-16T05:27:22;68054.25;;;2.14;100.00
6859;BME280;3468;42.824;23.240;2024-01-16T05:29:49;67699.00;;;2.44;100.00
6859;BME280;3468;42.824;23.240;2024-01-16T05:32:16;67731.06;;;2.48;100.00
6859;BME280;3468;42.824;23.240;2024-01-16T05:34:44;67766.41;;;2.50;100.00
6859;BME280;3468;42.824;23.240;2024-01-16T05:37:11;67783.09;;;2.52;100.00
6859;BME280;3468;42.824;23.240;2024-01-16T05:39:37;67672.31;;;2.02;100.00
6859;BME280;3468;42.824;23.240;2024-01-16T05:42:05;67928.22;;;2.20;100.00
6859;BME280;3468;42.824;23.240;2024-01-16T05:44:31;67733.22;;;2.22;100.00
6859;BME280;3468;42.824;23.240;2024-01-16T05:46:58;67745.00;;;2.58;100.00
6859;BME280;3468;42.824;23.240;2024-01-16T05:49:25;67752.84;;;2.60;100.00
6859;BME280;3468;42.824;23.240;2024-01-16T05:51:53;67739.38;;;2.64;100.00
6859;BME280;3468;42.824;23.240;2024-01-16T05:54:20;67699.41;;;2.40;100.00
6859;BME280;3468;42.824;23.240;2024-01-16T05:56:46;67757.03;;;2.68;100.00
6859;BME280;3468;42.824;23.240;2024-01-16T05:59:13;67785.44;;;2.71;100.00
6859;BME280;3468;42.824;23.240;2024-01-16T06:01:40;67751.19;;;2.76;100.00
6859;BME280;3468;42.824;23.240;2024-01-16T06:04:06;67781.03;;;2.72;100.00
6859;BME280;3468;42.824;23.240;2024-01-16T06:06:33;67747.03;;;2.68;100.00
6859;BME280;3468;42.824;23.240;2024-01-16T06:09:01;67781.03;;;2.72;100.00
6859;BME280;3468;42.824;23.240;2024-01-16T06:11:31;67785.25;;;2.49;100.00
6859;BME280;3468;42.824;23.240;2024-01-16T06:13:58;67751.56;;;2.55;100.00
6859;BME280;3468;42.824;23.240;2024-01-16T06:16:25;67717.88;;;2.60;100.00
6859;BME280;3468;42.824;23.240;2024-01-16T06:18:52;67709.84;;;2.36;100.00
6859;BME280;3468;42.824;23.240;2024-01-16T06:21:18;67760.94;;;2.61;100.00
6859;BME280;3468;42.824;23.240;2024-01-16T06:23:45;67722.94;;;2.54;100.00
6859;BME280;3468;42.824;23.240;2024-01-16T06:26:13;67697.50;;;2.41;100.00
6859;BME280;3468;42.824;23.240;2024-01-16T06:28:40;67751.84;;;2.64;100.00
6859;BME280;3468;42.824;23.240;2024-01-16T06:31:08;67747.03;;;2.68;100.00
6859;BME280;3468;42.824;23.240;2024-01-16T06:33:35;67780.50;;;2.65;100.00
6859;BME280;3468;42.824;23.240;2024-01-16T06:36:02;67719.13;;;2.48;100.00
6859;BME280;3468;42.824;23.240;2024-01-16T06:38:30;67752.06;;;2.62;100.00
6859;BME280;3468;42.824;23.240;2024-01-16T06:40:56;67761.72;;;2.59;100.00
6859;BME280;3468;42.824;23.240;2024-01-16T06:43:24;67774.00;;;2.61;100.00
6859;BME280;3468;42.824;23.240;2024-01-16T06:45:51;67774.72;;;2.66;100.00
6859;BME280;3468;42.824;23.240;2024-01-16T06:48:18;67795.28;;;2.67;100.00
6859;BME280;3468;42.824;23.240;2024-01-16T06:50:45;67762.41;;;2.71;100.00
6859;BME280;3468;42.824;23.240;2024-01-16T06:53:12;67854.00;;;2.31;100.00
6859;BME280;3468;42.824;23.240;2024-01-16T06:55:38;67723.53;;;2.72;100.00
6859;BME280;3468;42.824;23.240;2024-01-16T06:58:05;67761.41;;;2.74;100.00
6859;BME280;3468;42.824;23.240;2024-01-16T07:00:33;67796.19;;;2.76;100.00
6859;BME280;3468;42.824;23.240;2024-01-16T07:03:00;67764.47;;;2.75;100.00
6859;BME280;3468;42.824;23.240;2024-01-16T07:05:28;67771.03;;;2.72;100.00
6859;BME280;3468;42.824;23.240;2024-01-16T07:07:55;67770.28;;;2.67;100.00
6859;BME280;3468;42.824;23.240;2024-01-16T07:10:23;67763.00;;;2.65;100.00
6859;BME280;3468;42.824;23.240;2024-01-16T07:12:50;67774.16;;;2.66;100.00
6859;BME280;3468;42.824;23.240;2024-01-16T07:15:17;67734.19;;;2.66;100.00
6859;BME280;3468;42.824;23.240;2024-01-16T07:17:46;67763.28;;;2.56;100.00
6859;BME280;3468;42.824;23.240;2024-01-16T07:20:13;67754.94;;;2.64;100.00
6859;BME280;3468;42.824;23.240;2024-01-16T07:22:40;67749.94;;;2.64;100.00
6859;BME280;3468;42.824;23.240;2024-01-16T07:25:07;67750.31;;;2.67;100.00
6859;BME280;3468;42.824;23.240;2024-01-16T07:27:34;67769.34;;;2.64;100.00
6859;BME280;3468;42.824;23.240;2024-01-16T07:30:01;67747.44;;;2.64;100.00
6859;BME280;3468;42.824;23.240;2024-01-16T07:32:27;67774.72;;;2.66;100.00
6859;BME280;3468;42.824;23.240;2024-01-16T07:34:55;67743.59;;;2.65;100.00
6859;BME280;3468;42.824;23.240;2024-01-16T07:37:22;67782.56;;;2.69;100.00
6859;BME280;3468;42.824;23.240;2024-01-16T07:39:49;67757.22;;;2.66;100.00
6859;BME280;3468;42.824;23.240;2024-01-16T07:42:16;67788.94;;;2.68;100.00
6859;BME280;3468;42.824;23.240;2024-01-16T07:44:42;67787.38;;;2.71;100.00
6859;BME280;3468;42.824;23.240;2024-01-16T07:47:09;67739.91;;;2.71;100.00
6859;BME280;3468;42.824;23.240;2024-01-16T07:49:36;67755.31;;;2.43;100.00
6859;BME280;3468;42.824;23.240;2024-01-16T07:52:04;67744.47;;;2.75;100.00
6859;BME280;3468;42.824;23.240;2024-01-16T07:54:31;67773.91;;;2.74;100.00
6859;BME280;3468;42.824;23.240;2024-01-16T07:56:58;67779.47;;;2.75;100.00
6859;BME280;3468;42.824;23.240;2024-01-16T07:59:25;67786.19;;;2.76;100.00
6859;BME280;3468;42.824;23.240;2024-01-16T08:01:52;67778.31;;;2.74;100.00
6859;BME280;3468;42.824;23.240;2024-01-16T08:04:19;67738.91;;;2.74;100.00
6859;BME280;3468;42.824;23.240;2024-01-16T08:06:46;67740.81;;;2.74;100.00
6859;BME280;3468;42.824;23.240;2024-01-16T08:09:14;67796.75;;;2.77;100.00
6859;BME280;3468;42.824;23.240;2024-01-16T08:11:41;67747.69;;;2.80;100.00
6859;BME280;3468;42.824;23.240;2024-01-16T08:14:08;67778.63;;;2.83;100.00
6859;BME280;3468;42.824;23.240;2024-01-16T08:16:34;67727.31;;;2.60;100.00
6859;BME280;3468;42.824;23.240;2024-01-16T08:19:01;67808.94;;;2.91;100.00
6859;BME280;3468;42.824;23.240;2024-01-16T08:21:28;67710.75;;;2.63;100.00
6859;BME280;3468;42.824;23.240;2024-01-16T08:23:55;67776.38;;;2.98;100.00
6859;BME280;3468;42.824;23.240;2024-01-16T08:26:23;67768.59;;;3.06;100.00
6859;BME280;3468;42.824;23.240;2024-01-16T08:28:50;67784.09;;;3.13;100.00
6859;BME280;3468;42.824;23.240;2024-01-16T08:31:17;67774.75;;;2.84;100.00
6859;BME280;3468;42.824;23.240;2024-01-16T08:33:45;67779.56;;;3.03;100.00
6859;BME280;3468;42.824;23.240;2024-01-16T08:36:12;67774.88;;;2.71;100.00
6859;BME280;3468;42.824;23.240;2024-01-16T08:38:39;67833.03;;;2.82;100.00
6859;BME280;3468;42.824;23.240;2024-01-16T08:41:06;67907.88;;;2.78;100.00
6859;BME280;3468;42.824;23.240;2024-01-16T08:43:35;67776.50;;;3.02;100.00
6859;BME280;3468;42.824;23.240;2024-01-16T08:46:02;67609.97;;;2.82;100.00
6859;BME280;3468;42.824;23.240;2024-01-16T08:48:30;67789.94;;;3.05;100.00
6859;BME280;3468;42.824;23.240;2024-01-16T08:50:56;67793.94;;;3.09;100.00
6859;BME280;3468;42.824;23.240;2024-01-16T08:53:24;67780.88;;;3.08;100.00
6859;BME280;3468;42.824;23.240;2024-01-16T08:55:51;67812.44;;;3.05;100.00
6859;BME280;3468;42.824;23.240;2024-01-16T08:58:18;67813.28;;;2.97;100.00
6859;BME280;3468;42.824;23.240;2024-01-16T09:00:46;67801.94;;;2.98;100.00
6859;BME280;3468;42.824;23.240;2024-01-16T09:03:13;67766.13;;;2.83;100.00
6859;BME280;3468;42.824;23.240;2024-01-16T09:05:39;67781.78;;;2.94;100.00
6859;BME280;3468;42.824;23.240;2024-01-16T09:08:06;67807.72;;;2.97;100.00
6859;BME280;3468;42.824;23.240;2024-01-16T09:10:33;67777.03;;;2.86;100.00
6859;BME280;3468;42.824;23.240;2024-01-16T09:13:00;67773.91;;;2.91;100.00
6859;BME280;3468;42.824;23.240;2024-01-16T09:15:26;67791.66;;;3.07;100.00
6859;BME280;3468;42.824;23.240;2024-01-16T09:17:55;67765.88;;;3.08;100.00
6859;BME280;3468;42.824;23.240;2024-01-16T09:20:21;67788.59;;;3.06;100.00
6859;BME280;3468;42.824;23.240;2024-01-16T09:22:49;67857.41;;;3.12;100.00
6859;BME280;3468;42.824;23.240;2024-01-16T09:25:15;67812.84;;;3.25;100.00
6859;BME280;3468;42.824;23.240;2024-01-16T09:27:42;67804.69;;;3.31;100.00
6859;BME280;3468;42.824;23.240;2024-01-16T09:30:09;67822.00;;;3.33;100.00
6859;BME280;3468;42.824;23.240;2024-01-16T09:32:38;67722.59;;;2.69;100.00
6859;BME280;3468;42.824;23.240;2024-01-16T09:35:06;67769.72;;;3.07;100.00
6859;BME280;3468;42.824;23.240;2024-01-16T09:37:34;67827.31;;;3.42;100.00
6859;BME280;3468;42.824;23.240;2024-01-16T09:40:01;67786.75;;;3.35;100.00
6859;BME280;3468;42.824;23.240;2024-01-16T09:42:28;67820.16;;;3.44;100.00
6859;BME280;3468;42.824;23.240;2024-01-16T09:44:55;67828.72;;;3.52;100.00
6859;BME280;3468;42.824;23.240;2024-01-16T09:47:23;67809.88;;;3.53;100.00
6859;BME280;3468;42.824;23.240;2024-01-16T09:49:51;67864.22;;;3.48;100.00
6859;BME280;3468;42.824;23.240;2024-01-16T09:52:20;67832.97;;;3.53;100.00
6859;BME280;3468;42.824;23.240;2024-01-16T09:54:46;67786.38;;;3.15;100.00
6859;BME280;3468;42.824;23.240;2024-01-16T09:57:15;67740.28;;;3.42;100.00
6859;BME280;3468;42.824;23.240;2024-01-16T09:59:46;67847.56;;;3.57;100.00
6859;BME280;3468;42.824;23.240;2024-01-16T10:02:14;67811.16;;;3.58;100.00
6859;BME280;3468;42.824;23.240;2024-01-16T10:04:41;67833.69;;;3.58;100.00
6859;BME280;3468;42.824;23.240;2024-01-16T10:07:09;67859.28;;;3.59;100.00
6859;BME280;3468;42.824;23.240;2024-01-16T10:09:40;67828.88;;;3.56;100.00
6859;BME280;3468;42.824;23.240;2024-01-16T10:12:07;67846.41;;;3.73;100.00
6859;BME280;3468;42.824;23.240;2024-01-16T10:14:36;67790.69;;;3.45;100.00
6859;BME280;3468;42.824;23.240;2024-01-16T10:17:04;67808.28;;;3.90;100.00
6859;BME280;3468;42.824;23.240;2024-01-16T10:19:32;67895.03;;;4.05;100.00
6859;BME280;3468;42.824;23.240;2024-01-16T10:22:02;67876.63;;;3.95;100.00
6859;BME280;3468;42.824;23.240;2024-01-16T10:24:30;67847.06;;;3.85;100.00
6859;BME280;3468;42.824;23.240;2024-01-16T10:27:00;67931.00;;;4.49;99.42
6859;BME280;3468;42.824;23.240;2024-01-16T10:29:28;67917.53;;;4.46;98.89
6859;BME280;3468;42.824;23.240;2024-01-16T10:31:55;67893.88;;;4.38;99.61
6859;BME280;3468;42.824;23.240;2024-01-16T10:34:22;67890.31;;;4.31;100.00
6859;BME280;3468;42.824;23.240;2024-01-16T10:36:51;67842.94;;;4.11;100.00
6859;BME280;3468;42.824;23.240;2024-01-16T10:39:18;67814.38;;;4.15;100.00
6859;BME280;3468;42.824;23.240;2024-01-16T10:41:54;67842.50;;;4.15;99.89
6859;BME280;3468;42.824;23.240;2024-01-16T10:44:22;67895.84;;;4.20;100.00
6859;BME280;3468;42.824;23.240;2024-01-16T10:46:49;67850.38;;;4.18;100.00
6859;BME280;3468;42.824;23.240;2024-01-16T10:49:16;67886.03;;;4.18;100.00
6859;BME280;3468;42.824;23.240;2024-01-16T10:51:43;67894.47;;;4.21;98.86
6859;BME280;3468;42.824;23.240;2024-01-16T10:54:13;67916.16;;;4.29;99.82
6859;BME280;3468;42.824;23.240;2024-01-16T10:56:44;67917.66;;;4.33;99.85
6859;BME280;3468;42.824;23.240;2024-01-16T10:59:16;67885.16;;;4.44;99.55
6859;BME280;3468;42.824;23.240;2024-01-16T11:01:49;67907.22;;;4.37;99.19
6859;BME280;3468;42.824;23.240;2024-01-16T11:04:18;67920.09;;;4.39;100.00
6859;BME280;3468;42.824;23.240;2024-01-16T11:06:46;67948.75;;;4.47;100.00
6859;BME280;3468;42.824;23.240;2024-01-16T11:09:13;67903.34;;;4.55;100.00
6859;BME280;3468;42.824;23.240;2024-01-16T11:11:43;67922.25;;;4.54;98.83
6859;BME280;3468;42.824;23.240;2024-01-16T11:14:11;67910.78;;;4.44;100.00
6859;BME280;3468;42.824;23.240;2024-01-16T11:16:39;67942.72;;;4.33;100.00
6859;BME280;3468;42.824;23.240;2024-01-16T11:19:08;67913.22;;;4.16;99.19
6859;BME280;3468;42.824;23.240;2024-01-16T11:21:37;67911.00;;;4.08;99.57
6859;BME280;3468;42.824;23.240;2024-01-16T11:24:05;67911.47;;;3.97;100.00
6859;BME280;3468;42.824;23.240;2024-01-16T11:26:32;67832.19;;;3.72;100.00
6859;BME280;3468;42.824;23.240;2024-01-16T11:29:34;67857.31;;;4.00;100.00
6859;BME280;3468;42.824;23.240;2024-01-16T11:32:02;67850.72;;;4.03;100.00
6859;BME280;3468;42.824;23.240;2024-01-16T11:34:55;67864.38;;;4.04;100.00
6859;BME280;3468;42.824;23.240;2024-01-16T11:37:27;67815.31;;;3.66;100.00
6859;BME280;3468;42.824;23.240;2024-01-16T11:40:24;67890.16;;;4.09;100.00
6859;BME280;3468;42.824;23.240;2024-01-16T11:42:52;67822.09;;;3.78;100.00
6859;BME280;3468;42.824;23.240;2024-01-16T11:45:48;67916.38;;;4.10;99.87
6859;BME280;3468;42.824;23.240;2024-01-16T11:48:16;67859.25;;;4.17;100.00
6859;BME280;3468;42.824;23.240;2024-01-16T11:50:44;67905.19;;;4.26;99.55
6859;BME280;3468;42.824;23.240;2024-01-16T11:53:31;67884.94;;;4.46;99.78
6859;BME280;3468;42.824;23.240;2024-01-16T11:58:57;67942.16;;;4.67;96.18
6859;BME280;3468;42.824;23.240;2024-01-16T12:01:29;67944.59;;;4.73;96.37
6859;BME280;3468;42.824;23.240;2024-01-16T12:04:02;67932.28;;;4.71;96.19
6859;BME280;3468;42.824;23.240;2024-01-16T12:06:31;67886.13;;;4.75;94.28
6859;BME280;3468;42.824;23.240;2024-01-16T12:09:16;67917.16;;;4.78;93.95
6859;BME280;3468;42.824;23.240;2024-01-16T12:11:44;67895.59;;;4.74;94.67
6859;BME280;3468;42.824;23.240;2024-01-16T12:14:22;67917.53;;;4.63;94.14
6859;BME280;3468;42.824;23.240;2024-01-16T12:16:50;67919.41;;;4.69;92.05
6859;BME280;3468;42.824;23.240;2024-01-16T12:19:17;67958.19;;;5.15;92.63
6859;BME280;3468;42.824;23.240;2024-01-16T12:21:45;68004.44;;;5.40;91.32
6859;BME280;3468;42.824;23.240;2024-01-16T12:24:13;68034.09;;;5.61;91.01
6859;BME280;3468;42.824;23.240;2024-01-16T12:26:39;68002.44;;;5.75;88.78
6859;BME280;3468;42.824;23.240;2024-01-16T12:29:07;68050.41;;;5.73;88.23
6859;BME280;3468;42.824;23.240;2024-01-16T12:31:34;68026.63;;;5.72;88.16
6859;BME280;3468;42.824;23.240;2024-01-16T12:34:07;67942.69;;;5.19;88.16
6859;BME280;3468;42.824;23.240;2024-01-16T12:36:35;67996.38;;;5.50;88.62
6859;BME280;3468;42.824;23.240;2024-01-16T12:39:04;67961.34;;;5.27;89.08
6859;BME280;3468;42.824;23.240;2024-01-16T12:41:34;67966.22;;;5.22;90.02
6859;BME280;3468;42.824;23.240;2024-01-16T12:44:03;67987.38;;;5.30;90.77
6859;BME280;3468;42.824;23.240;2024-01-16T12:46:30;67960.66;;;5.04;91.19
6859;BME280;3468;42.824;23.240;2024-01-16T12:49:01;67942.97;;;4.83;92.41
6859;BME280;3468;42.824;23.240;2024-01-16T12:51:28;67915.66;;;4.74;94.42
6859;BME280;3468;42.824;23.240;2024-01-16T12:54:11;67906.75;;;4.75;94.74
6859;BME280;3468;42.824;23.240;2024-01-16T12:56:38;67924.97;;;4.52;93.00
6859;BME280;3468;42.824;23.240;2024-01-16T12:59:09;67924.69;;;4.78;90.56
6859;BME280;3468;42.824;23.240;2024-01-16T13:01:39;67948.25;;;4.92;90.68
6859;BME280;3468;42.824;23.240;2024-01-16T13:04:07;67967.47;;;4.99;90.50
6859;BME280;3468;42.824;23.240;2024-01-16T13:06:34;67931.09;;;5.05;91.85
6859;BME280;3468;42.824;23.240;2024-01-16T13:09:05;67977.22;;;5.08;91.89
6859;BME280;3468;42.824;23.240;2024-01-16T13:11:48;68005.31;;;5.15;91.95
6859;BME280;3468;42.824;23.240;2024-01-16T13:14:16;67927.78;;;5.24;90.54
6859;BME280;3468;42.824;23.240;2024-01-16T13:16:43;67954.75;;;5.30;90.99
6859;BME280;3468;42.824;23.240;2024-01-16T13:19:10;67976.44;;;5.37;91.17